sensor_id;sensor_type;location;lat;lon;timestamp;pressure;altitude;pressure_sealevel;temperature
39959;BMP280;25639;53.634;9.880;2022-11-09T00:02:04;155443.78;;;12.43
39959;BMP280;25639;53.634;9.880;2022-11-09T00:04:29;155439.97;;;12.42
39959;BMP280;25639;53.634;9.880;2022-11-09T00:06:55;155448.91;;;12.45
39959;BMP280;25639;53.634;9.880;2022-11-09T00:09:20;155468.03;;;12.53
39959;BMP280;25639;53.634;9.880;2022-11-09T00:11:45;155464.19;;;12.51
39959;BMP280;25639;53.634;9.880;2022-11-09T00:14:14;155451.41;;;12.46
39959;BMP280;25639;53.634;9.880;2022-11-09T00:16:39;155442.47;;;12.43
39959;BMP280;25639;53.634;9.880;2022-11-09T00:19:04;155451.41;;;12.46
39959;BMP280;25639;53.634;9.880;2022-11-09T00:21:30;155446.31;;;12.44
39959;BMP280;25639;53.634;9.880;2022-11-09T00:23:55;155450.16;;;12.46
39959;BMP280;25639;53.634;9.880;2022-11-09T00:26:21;155465.47;;;12.52
39959;BMP280;25639;53.634;9.880;2022-11-09T00:28:46;155462.94;;;12.51
39959;BMP280;25639;53.634;9.880;2022-11-09T00:31:13;155456.53;;;12.48
39959;BMP280;25639;53.634;9.880;2022-11-09T00:33:38;155464.19;;;12.51
39959;BMP280;25639;53.634;9.880;2022-11-09T00:36:04;155455.25;;;12.48
39959;BMP280;25639;53.634;9.880;2022-11-09T00:38:34;155446.31;;;12.44
39959;BMP280;25639;53.634;9.880;2022-11-09T00:41:00;155438.63;;;12.41
39959;BMP280;25639;53.634;9.880;2022-11-09T00:43:26;155442.47;;;12.43
39959;BMP280;25639;53.634;9.880;2022-11-09T00:45:51;155439.97;;;12.42
39959;BMP280;25639;53.634;9.880;2022-11-09T00:48:16;155443.78;;;12.43
39959;BMP280;25639;53.634;9.880;2022-11-09T00:50:41;155437.38;;;12.40
39959;BMP280;25639;53.634;9.880;2022-11-09T00:53:12;155462.94;;;12.51
39959;BMP280;25639;53.634;9.880;2022-11-09T00:55:37;155454.00;;;12.47
39959;BMP280;25639;53.634;9.880;2022-11-09T00:58:03;155452.72;;;12.47
39959;BMP280;25639;53.634;9.880;2022-11-09T01:00:28;155466.75;;;12.52
39959;BMP280;25639;53.634;9.880;2022-11-09T01:02:53;155475.69;;;12.56
39959;BMP280;25639;53.634;9.880;2022-11-09T01:05:18;155476.97;;;12.56
39959;BMP280;25639;53.634;9.880;2022-11-09T01:07:43;155482.06;;;12.58
39959;BMP280;25639;53.634;9.880;2022-11-09T01:10:08;155466.75;;;12.52
39959;BMP280;25639;53.634;9.880;2022-11-09T01:12:34;155459.09;;;12.49
39959;BMP280;25639;53.634;9.880;2022-11-09T01:14:59;155483.34;;;12.59
39959;BMP280;25639;53.634;9.880;2022-11-09T01:17:24;155480.81;;;12.58
39959;BMP280;25639;53.634;9.880;2022-11-09T01:19:50;155488.47;;;12.61
39959;BMP280;25639;53.634;9.880;2022-11-09T01:22:16;155492.31;;;12.63
39959;BMP280;25639;53.634;9.880;2022-11-09T01:24:41;155494.84;;;12.64
39959;BMP280;25639;53.634;9.880;2022-11-09T01:27:06;155474.41;;;12.55
39959;BMP280;25639;53.634;9.880;2022-11-09T01:29:33;155465.47;;;12.52
39959;BMP280;25639;53.634;9.880;2022-11-09T01:31:59;155456.53;;;12.48
39959;BMP280;25639;53.634;9.880;2022-11-09T01:34:24;155454.00;;;12.47
39959;BMP280;25639;53.634;9.880;2022-11-09T01:36:51;155447.59;;;12.45
39959;BMP280;25639;53.634;9.880;2022-11-09T01:39:17;155436.13;;;12.40
39959;BMP280;25639;53.634;9.880;2022-11-09T01:41:43;155428.44;;;12.37
39959;BMP280;25639;53.634;9.880;2022-11-09T01:44:15;155431.03;;;12.38
39959;BMP280;25639;53.634;9.880;2022-11-09T01:46:51;155409.31;;;12.29
39959;BMP280;25639;53.634;9.880;2022-11-09T01:51:58;155368.47;;;12.13
39959;BMP280;25639;53.634;9.880;2022-11-09T01:54:26;155385.03;;;12.19
39959;BMP280;25639;53.634;9.880;2022-11-09T01:56:53;155360.78;;;12.10
39959;BMP280;25639;53.634;9.880;2022-11-09T01:59:21;155376.09;;;12.16
39959;BMP280;25639;53.634;9.880;2022-11-09T02:01:48;155360.78;;;12.10
39959;BMP280;25639;53.634;9.880;2022-11-09T02:04:25;155362.06;;;12.10
39959;BMP280;25639;53.634;9.880;2022-11-09T02:06:52;155356.94;;;12.08
39959;BMP280;25639;53.634;9.880;2022-11-09T02:09:30;155358.22;;;12.09
39959;BMP280;25639;53.634;9.880;2022-11-09T02:11:57;155359.53;;;12.09
39959;BMP280;25639;53.634;9.880;2022-11-09T02:14:24;155390.16;;;12.22
39959;BMP280;25639;53.634;9.880;2022-11-09T02:16:50;155396.53;;;12.24
39959;BMP280;25639;53.634;9.880;2022-11-09T02:19:15;155378.66;;;12.17
39959;BMP280;25639;53.634;9.880;2022-11-09T02:21:41;155367.16;;;12.12
39959;BMP280;25639;53.634;9.880;2022-11-09T02:24:06;155378.66;;;12.17
39959;BMP280;25639;53.634;9.880;2022-11-09T02:26:36;155396.53;;;12.24
39959;BMP280;25639;53.634;9.880;2022-11-09T02:29:03;155402.91;;;12.27
39959;BMP280;25639;53.634;9.880;2022-11-09T02:31:33;155401.63;;;12.26
39959;BMP280;25639;53.634;9.880;2022-11-09T02:34:07;155387.59;;;12.20
39959;BMP280;25639;53.634;9.880;2022-11-09T02:36:33;155386.34;;;12.20
39959;BMP280;25639;53.634;9.880;2022-11-09T02:38:58;155391.44;;;12.22
39959;BMP280;25639;53.634;9.880;2022-11-09T02:41:24;155410.56;;;12.30
39959;BMP280;25639;53.634;9.880;2022-11-09T02:43:50;155410.56;;;12.30
39959;BMP280;25639;53.634;9.880;2022-11-09T02:49:10;155392.69;;;12.23
39959;BMP280;25639;53.634;9.880;2022-11-09T02:51:36;155388.88;;;12.21
39959;BMP280;25639;53.634;9.880;2022-11-09T02:54:01;155373.56;;;12.15
39959;BMP280;25639;53.634;9.880;2022-11-09T02:56:27;155373.56;;;12.15
39959;BMP280;25639;53.634;9.880;2022-11-09T02:58:52;155376.09;;;12.16
39959;BMP280;25639;53.634;9.880;2022-11-09T03:01:17;155368.47;;;12.13
39959;BMP280;25639;53.634;9.880;2022-11-09T03:03:42;155376.09;;;12.16
39959;BMP280;25639;53.634;9.880;2022-11-09T03:06:08;155385.03;;;12.19
39959;BMP280;25639;53.634;9.880;2022-11-09T03:08:33;155365.88;;;12.12
39959;BMP280;25639;53.634;9.880;2022-11-09T03:10:58;155364.63;;;12.11
39959;BMP280;25639;53.634;9.880;2022-11-09T03:13:23;155362.06;;;12.10
39959;BMP280;25639;53.634;9.880;2022-11-09T03:15:49;155351.84;;;12.06
39959;BMP280;25639;53.634;9.880;2022-11-09T03:18:14;155356.94;;;12.08
39959;BMP280;25639;53.634;9.880;2022-11-09T03:20:39;155368.47;;;12.13
39959;BMP280;25639;53.634;9.880;2022-11-09T03:23:04;155378.66;;;12.17
39959;BMP280;25639;53.634;9.880;2022-11-09T03:25:29;155401.63;;;12.26
39959;BMP280;25639;53.634;9.880;2022-11-09T03:28:01;155391.44;;;12.22
39959;BMP280;25639;53.634;9.880;2022-11-09T03:30:27;155391.44;;;12.22
39959;BMP280;25639;53.634;9.880;2022-11-09T03:32:57;155388.88;;;12.21
39959;BMP280;25639;53.634;9.880;2022-11-09T03:35:22;155388.88;;;12.21
39959;BMP280;25639;53.634;9.880;2022-11-09T03:37:47;155397.78;;;12.25
39959;BMP280;25639;53.634;9.880;2022-11-09T03:40:12;155402.91;;;12.27
39959;BMP280;25639;53.634;9.880;2022-11-09T03:42:41;155406.72;;;12.28
39959;BMP280;25639;53.634;9.880;2022-11-09T03:45:07;155411.84;;;12.30
39959;BMP280;25639;53.634;9.880;2022-11-09T03:47:32;155402.91;;;12.27
39959;BMP280;25639;53.634;9.880;2022-11-09T03:49:57;155402.91;;;12.27
39959;BMP280;25639;53.634;9.880;2022-11-09T03:52:22;155393.97;;;12.23
39959;BMP280;25639;53.634;9.880;2022-11-09T03:54:48;155385.03;;;12.19
39959;BMP280;25639;53.634;9.880;2022-11-09T03:57:13;155374.81;;;12.15
39959;BMP280;25639;53.634;9.880;2022-11-09T03:59:38;155360.78;;;12.10
39959;BMP280;25639;53.634;9.880;2022-11-09T04:02:03;155362.06;;;12.10
39959;BMP280;25639;53.634;9.880;2022-11-09T04:04:28;155358.22;;;12.09
39959;BMP280;25639;53.634;9.880;2022-11-09T04:06:53;155369.72;;;12.13
39959;BMP280;25639;53.634;9.880;2022-11-09T04:09:19;155356.94;;;12.08
39959;BMP280;25639;53.634;9.880;2022-11-09T04:11:44;155348.00;;;12.05
39959;BMP280;25639;53.634;9.880;2022-11-09T04:14:09;155353.13;;;12.07
39959;BMP280;25639;53.634;9.880;2022-11-09T04:16:34;155365.88;;;12.12
39959;BMP280;25639;53.634;9.880;2022-11-09T04:18:59;155362.06;;;12.10
39959;BMP280;25639;53.634;9.880;2022-11-09T04:21:25;155358.22;;;12.09
39959;BMP280;25639;53.634;9.880;2022-11-09T04:23:50;155364.63;;;12.11
39959;BMP280;25639;53.634;9.880;2022-11-09T04:26:15;155355.69;;;12.08
39959;BMP280;25639;53.634;9.880;2022-11-09T04:28:40;155356.94;;;12.08
39959;BMP280;25639;53.634;9.880;2022-11-09T04:31:05;155345.44;;;12.04
39959;BMP280;25639;53.634;9.880;2022-11-09T04:33:31;155321.22;;;11.94
39959;BMP280;25639;53.634;9.880;2022-11-09T04:36:03;155309.66;;;11.89
39959;BMP280;25639;53.634;9.880;2022-11-09T04:38:28;155299.47;;;11.85
39959;BMP280;25639;53.634;9.880;2022-11-09T04:40:53;155342.91;;;12.02
39959;BMP280;25639;53.634;9.880;2022-11-09T04:43:18;155342.91;;;12.02
39959;BMP280;25639;53.634;9.880;2022-11-09T04:45:44;155328.88;;;11.97
39959;BMP280;25639;53.634;9.880;2022-11-09T04:48:10;155332.72;;;11.98
39959;BMP280;25639;53.634;9.880;2022-11-09T04:50:36;155328.88;;;11.97
39959;BMP280;25639;53.634;9.880;2022-11-09T04:53:05;155340.34;;;12.01
39959;BMP280;25639;53.634;9.880;2022-11-09T04:55:30;155328.88;;;11.97
39959;BMP280;25639;53.634;9.880;2022-11-09T04:57:55;155321.22;;;11.94
39959;BMP280;25639;53.634;9.880;2022-11-09T05:00:21;155321.22;;;11.94
39959;BMP280;25639;53.634;9.880;2022-11-09T05:02:46;155310.97;;;11.90
39959;BMP280;25639;53.634;9.880;2022-11-09T05:05:11;155304.56;;;11.87
39959;BMP280;25639;53.634;9.880;2022-11-09T05:07:36;155319.94;;;11.93
39959;BMP280;25639;53.634;9.880;2022-11-09T05:10:01;155314.84;;;11.91
39959;BMP280;25639;53.634;9.880;2022-11-09T05:12:26;155307.13;;;11.88
39959;BMP280;25639;53.634;9.880;2022-11-09T05:14:52;155321.22;;;11.94
39959;BMP280;25639;53.634;9.880;2022-11-09T05:17:17;155327.56;;;11.96
39959;BMP280;25639;53.634;9.880;2022-11-09T05:19:42;155340.34;;;12.01
39959;BMP280;25639;53.634;9.880;2022-11-09T05:22:07;155351.84;;;12.06
39959;BMP280;25639;53.634;9.880;2022-11-09T05:24:51;155358.22;;;12.09
39959;BMP280;25639;53.634;9.880;2022-11-09T05:27:16;155350.59;;;12.06
39959;BMP280;25639;53.634;9.880;2022-11-09T05:29:42;155363.34;;;12.11
39959;BMP280;25639;53.634;9.880;2022-11-09T05:32:07;155373.56;;;12.15
39959;BMP280;25639;53.634;9.880;2022-11-09T05:34:32;155379.91;;;12.17
39959;BMP280;25639;53.634;9.880;2022-11-09T05:36:57;155392.69;;;12.23
39959;BMP280;25639;53.634;9.880;2022-11-09T05:39:22;155404.22;;;12.27
39959;BMP280;25639;53.634;9.880;2022-11-09T05:41:48;155402.91;;;12.27
39959;BMP280;25639;53.634;9.880;2022-11-09T05:44:13;155397.78;;;12.25
39959;BMP280;25639;53.634;9.880;2022-11-09T05:46:38;155390.16;;;12.22
39959;BMP280;25639;53.634;9.880;2022-11-09T05:49:03;155404.22;;;12.27
39959;BMP280;25639;53.634;9.880;2022-11-09T05:51:28;155383.75;;;12.19
39959;BMP280;25639;53.634;9.880;2022-11-09T05:53:53;155369.72;;;12.13
39959;BMP280;25639;53.634;9.880;2022-11-09T05:56:19;155362.06;;;12.10
39959;BMP280;25639;53.634;9.880;2022-11-09T05:58:44;155359.53;;;12.09
39959;BMP280;25639;53.634;9.880;2022-11-09T06:01:15;155356.94;;;12.08
39959;BMP280;25639;53.634;9.880;2022-11-09T06:03:42;155350.59;;;12.06
39959;BMP280;25639;53.634;9.880;2022-11-09T06:06:12;155354.38;;;12.07
39959;BMP280;25639;53.634;9.880;2022-11-09T06:08:37;155341.66;;;12.02
39959;BMP280;25639;53.634;9.880;2022-11-09T06:11:03;155350.59;;;12.06
39959;BMP280;25639;53.634;9.880;2022-11-09T06:13:29;155355.69;;;12.08
39959;BMP280;25639;53.634;9.880;2022-11-09T06:15:55;155374.81;;;12.15
39959;BMP280;25639;53.634;9.880;2022-11-09T06:18:25;155379.91;;;12.17
39959;BMP280;25639;53.634;9.880;2022-11-09T06:20:51;155370.97;;;12.14
39959;BMP280;25639;53.634;9.880;2022-11-09T06:23:17;155376.09;;;12.16
39959;BMP280;25639;53.634;9.880;2022-11-09T06:25:42;155376.09;;;12.16
39959;BMP280;25639;53.634;9.880;2022-11-09T06:28:07;155388.88;;;12.21
39959;BMP280;25639;53.634;9.880;2022-11-09T06:30:32;155392.69;;;12.23
39959;BMP280;25639;53.634;9.880;2022-11-09T06:33:01;155395.28;;;12.24
39959;BMP280;25639;53.634;9.880;2022-11-09T06:35:29;155396.53;;;12.24
39959;BMP280;25639;53.634;9.880;2022-11-09T06:37:57;155387.59;;;12.20
39959;BMP280;25639;53.634;9.880;2022-11-09T06:40:23;155381.22;;;12.18
39959;BMP280;25639;53.634;9.880;2022-11-09T06:42:48;155370.97;;;12.14
39959;BMP280;25639;53.634;9.880;2022-11-09T06:45:13;155364.63;;;12.11
39959;BMP280;25639;53.634;9.880;2022-11-09T06:47:38;155349.28;;;12.05
39959;BMP280;25639;53.634;9.880;2022-11-09T06:50:04;155362.06;;;12.10
39959;BMP280;25639;53.634;9.880;2022-11-09T06:52:29;155365.88;;;12.12
39959;BMP280;25639;53.634;9.880;2022-11-09T06:54:54;155354.38;;;12.07
39959;BMP280;25639;53.634;9.880;2022-11-09T06:57:19;155359.53;;;12.09
39959;BMP280;25639;53.634;9.880;2022-11-09T06:59:44;155356.94;;;12.08
39959;BMP280;25639;53.634;9.880;2022-11-09T07:02:12;155341.66;;;12.02
39959;BMP280;25639;53.634;9.880;2022-11-09T07:04:38;155340.34;;;12.01
39959;BMP280;25639;53.634;9.880;2022-11-09T07:07:04;155327.56;;;11.96
39959;BMP280;25639;53.634;9.880;2022-11-09T07:09:30;155326.31;;;11.96
39959;BMP280;25639;53.634;9.880;2022-11-09T07:11:56;155323.78;;;11.95
39959;BMP280;25639;53.634;9.880;2022-11-09T07:14:22;155323.78;;;11.95
39959;BMP280;25639;53.634;9.880;2022-11-09T07:16:47;155325.06;;;11.95
39959;BMP280;25639;53.634;9.880;2022-11-09T07:19:12;155337.81;;;12.00
39959;BMP280;25639;53.634;9.880;2022-11-09T07:21:37;155345.44;;;12.04
39959;BMP280;25639;53.634;9.880;2022-11-09T07:24:02;155348.00;;;12.05
39959;BMP280;25639;53.634;9.880;2022-11-09T07:26:28;155349.28;;;12.05
39959;BMP280;25639;53.634;9.880;2022-11-09T07:28:53;155339.09;;;12.01
39959;BMP280;25639;53.634;9.880;2022-11-09T07:31:18;155322.47;;;11.94
39959;BMP280;25639;53.634;9.880;2022-11-09T07:33:43;155314.84;;;11.91
39959;BMP280;25639;53.634;9.880;2022-11-09T07:36:08;155323.78;;;11.95
39959;BMP280;25639;53.634;9.880;2022-11-09T07:38:34;155336.50;;;12.00
39959;BMP280;25639;53.634;9.880;2022-11-09T07:40:59;155337.81;;;12.00
39959;BMP280;25639;53.634;9.880;2022-11-09T07:43:25;155337.81;;;12.00
39959;BMP280;25639;53.634;9.880;2022-11-09T07:45:51;155345.44;;;12.04
39959;BMP280;25639;53.634;9.880;2022-11-09T07:48:16;155344.19;;;12.03
39959;BMP280;25639;53.634;9.880;2022-11-09T07:50:42;155346.75;;;12.04
39959;BMP280;25639;53.634;9.880;2022-11-09T07:53:08;155358.22;;;12.09
39959;BMP280;25639;53.634;9.880;2022-11-09T07:55:34;155363.34;;;12.11
39959;BMP280;25639;53.634;9.880;2022-11-09T07:58:04;155362.06;;;12.10
39959;BMP280;25639;53.634;9.880;2022-11-09T08:00:30;155362.06;;;12.10
39959;BMP280;25639;53.634;9.880;2022-11-09T08:02:56;155387.59;;;12.20
39959;BMP280;25639;53.634;9.880;2022-11-09T08:05:21;155382.50;;;12.18
39959;BMP280;25639;53.634;9.880;2022-11-09T08:07:46;155387.59;;;12.20
39959;BMP280;25639;53.634;9.880;2022-11-09T08:10:12;155395.28;;;12.24
39959;BMP280;25639;53.634;9.880;2022-11-09T08:12:37;155385.03;;;12.19
39959;BMP280;25639;53.634;9.880;2022-11-09T08:15:03;155402.91;;;12.27
39959;BMP280;25639;53.634;9.880;2022-11-09T08:17:29;155399.09;;;12.25
39959;BMP280;25639;53.634;9.880;2022-11-09T08:19:54;155423.34;;;12.35
39959;BMP280;25639;53.634;9.880;2022-11-09T08:22:20;155414.41;;;12.31
39959;BMP280;25639;53.634;9.880;2022-11-09T08:24:45;155410.56;;;12.30
39959;BMP280;25639;53.634;9.880;2022-11-09T08:27:10;155425.91;;;12.36
39959;BMP280;25639;53.634;9.880;2022-11-09T08:29:35;155419.50;;;12.33
39959;BMP280;25639;53.634;9.880;2022-11-09T08:32:00;155391.44;;;12.22
39959;BMP280;25639;53.634;9.880;2022-11-09T08:34:25;155390.16;;;12.22
39959;BMP280;25639;53.634;9.880;2022-11-09T08:36:51;155392.69;;;12.23
39959;BMP280;25639;53.634;9.880;2022-11-09T08:39:17;155418.25;;;12.33
39959;BMP280;25639;53.634;9.880;2022-11-09T08:41:42;155462.94;;;12.51
39959;BMP280;25639;53.634;9.880;2022-11-09T08:44:07;155506.34;;;12.68
39959;BMP280;25639;53.634;9.880;2022-11-09T08:46:32;155548.47;;;12.85
39959;BMP280;25639;53.634;9.880;2022-11-09T08:48:58;155572.78;;;12.95
39959;BMP280;25639;53.634;9.880;2022-11-09T08:51:23;155599.59;;;13.06
39959;BMP280;25639;53.634;9.880;2022-11-09T08:53:48;155644.31;;;13.24
39959;BMP280;25639;53.634;9.880;2022-11-09T08:56:14;155673.72;;;13.35
39959;BMP280;25639;53.634;9.880;2022-11-09T08:58:42;155677.56;;;13.37
39959;BMP280;25639;53.634;9.880;2022-11-09T09:01:08;155676.28;;;13.37
39959;BMP280;25639;53.634;9.880;2022-11-09T09:03:33;155706.97;;;13.49
39959;BMP280;25639;53.634;9.880;2022-11-09T09:06:01;155740.16;;;13.62
39959;BMP280;25639;53.634;9.880;2022-11-09T09:08:26;155733.78;;;13.60
39959;BMP280;25639;53.634;9.880;2022-11-09T09:10:51;155752.94;;;13.67
39959;BMP280;25639;53.634;9.880;2022-11-09T09:13:16;155777.25;;;13.77
39959;BMP280;25639;53.634;9.880;2022-11-09T09:15:43;155796.41;;;13.85
39959;BMP280;25639;53.634;9.880;2022-11-09T09:18:08;155788.72;;;13.82
39959;BMP280;25639;53.634;9.880;2022-11-09T09:20:33;155806.59;;;13.89
39959;BMP280;25639;53.634;9.880;2022-11-09T09:22:59;155797.66;;;13.85
39959;BMP280;25639;53.634;9.880;2022-11-09T09:25:25;155801.50;;;13.87
39959;BMP280;25639;53.634;9.880;2022-11-09T09:27:50;155805.34;;;13.88
39959;BMP280;25639;53.634;9.880;2022-11-09T09:30:16;155789.97;;;13.82
39959;BMP280;25639;53.634;9.880;2022-11-09T09:32:41;155756.78;;;13.69
39959;BMP280;25639;53.634;9.880;2022-11-09T09:35:07;155735.03;;;13.60
39959;BMP280;25639;53.634;9.880;2022-11-09T09:37:32;155691.59;;;13.43
39959;BMP280;25639;53.634;9.880;2022-11-09T09:39:57;155696.69;;;13.45
39959;BMP280;25639;53.634;9.880;2022-11-09T09:42:24;155681.38;;;13.39
39959;BMP280;25639;53.634;9.880;2022-11-09T09:49:54;155690.31;;;13.42
39959;BMP280;25639;53.634;9.880;2022-11-09T09:52:33;155692.91;;;13.43
39959;BMP280;25639;53.634;9.880;2022-11-09T09:57:35;155695.44;;;13.44
39959;BMP280;25639;53.634;9.880;2022-11-09T10:00:02;155733.78;;;13.60
39959;BMP280;25639;53.634;9.880;2022-11-09T10:02:34;155736.31;;;13.61
39959;BMP280;25639;53.634;9.880;2022-11-09T10:05:00;155749.09;;;13.66
39959;BMP280;25639;53.634;9.880;2022-11-09T10:07:33;155767.00;;;13.73
39959;BMP280;25639;53.634;9.880;2022-11-09T10:12:32;155787.44;;;13.81
39959;BMP280;25639;53.634;9.880;2022-11-09T10:15:15;155827.06;;;13.97
39959;BMP280;25639;53.634;9.880;2022-11-09T10:18:00;155839.88;;;14.02
39959;BMP280;25639;53.634;9.880;2022-11-09T10:25:38;155828.34;;;13.98
39959;BMP280;25639;53.634;9.880;2022-11-09T10:28:12;155859.03;;;14.10
39959;BMP280;25639;53.634;9.880;2022-11-09T10:30:38;155884.59;;;14.20
39959;BMP280;25639;53.634;9.880;2022-11-09T10:35:45;155884.59;;;14.20
39959;BMP280;25639;53.634;9.880;2022-11-09T10:38:27;155888.44;;;14.22
39959;BMP280;25639;53.634;9.880;2022-11-09T10:41:00;155870.50;;;14.15
39959;BMP280;25639;53.634;9.880;2022-11-09T10:43:27;155861.53;;;14.11
39959;BMP280;25639;53.634;9.880;2022-11-09T10:45:57;155851.34;;;14.07
39959;BMP280;25639;53.634;9.880;2022-11-09T10:48:35;155827.06;;;13.97
39959;BMP280;25639;53.634;9.880;2022-11-09T10:51:01;155851.34;;;14.07
39959;BMP280;25639;53.634;9.880;2022-11-09T10:53:31;155850.06;;;14.06
39959;BMP280;25639;53.634;9.880;2022-11-09T10:56:05;155823.22;;;13.96
39959;BMP280;25639;53.634;9.880;2022-11-09T10:58:35;155842.38;;;14.03
39959;BMP280;25639;53.634;9.880;2022-11-09T11:01:05;155815.56;;;13.92
39959;BMP280;25639;53.634;9.880;2022-11-09T11:03:36;155791.28;;;13.83
39959;BMP280;25639;53.634;9.880;2022-11-09T11:06:08;155764.47;;;13.72
39959;BMP280;25639;53.634;9.880;2022-11-09T11:09:21;155797.66;;;13.85
39959;BMP280;25639;53.634;9.880;2022-11-09T11:11:31;155810.44;;;13.90
39959;BMP280;25639;53.634;9.880;2022-11-09T11:14:05;155818.13;;;13.94
39959;BMP280;25639;53.634;9.880;2022-11-09T11:16:33;155838.56;;;14.02
39959;BMP280;25639;53.634;9.880;2022-11-09T11:18:59;155880.75;;;14.19
39959;BMP280;25639;53.634;9.880;2022-11-09T11:21:25;155883.28;;;14.20
39959;BMP280;25639;53.634;9.880;2022-11-09T11:29:16;155865.38;;;14.13
39959;BMP280;25639;53.634;9.880;2022-11-09T11:31:46;155866.72;;;14.13
39959;BMP280;25639;53.634;9.880;2022-11-09T11:34:12;155856.44;;;14.09
39959;BMP280;25639;53.634;9.880;2022-11-09T11:36:40;155869.22;;;14.14
39959;BMP280;25639;53.634;9.880;2022-11-09T11:39:24;155894.81;;;14.24
39959;BMP280;25639;53.634;9.880;2022-11-09T11:42:00;155899.91;;;14.26
39959;BMP280;25639;53.634;9.880;2022-11-09T12:00:14;155861.53;;;14.11
39959;BMP280;25639;53.634;9.880;2022-11-09T12:15:46;155866.72;;;14.13
39959;BMP280;25639;53.634;9.880;2022-11-09T12:20:57;155890.97;;;14.23
39959;BMP280;25639;53.634;9.880;2022-11-09T12:26:13;155887.13;;;14.21
39959;BMP280;25639;53.634;9.880;2022-11-09T12:28:59;155894.81;;;14.24
39959;BMP280;25639;53.634;9.880;2022-11-09T12:34:05;155885.88;;;14.21
39959;BMP280;25639;53.634;9.880;2022-11-09T12:36:40;155885.88;;;14.21
39959;BMP280;25639;53.634;9.880;2022-11-09T12:39:09;155890.97;;;14.23
39959;BMP280;25639;53.634;9.880;2022-11-09T12:41:36;155864.13;;;14.12
39959;BMP280;25639;53.634;9.880;2022-11-09T12:46:31;155901.19;;;14.27
39959;BMP280;25639;53.634;9.880;2022-11-09T12:49:00;155896.06;;;14.25
39959;BMP280;25639;53.634;9.880;2022-11-09T12:51:26;155893.53;;;14.24
39959;BMP280;25639;53.634;9.880;2022-11-09T12:53:52;155919.06;;;14.34
39959;BMP280;25639;53.634;9.880;2022-11-09T12:56:30;155949.75;;;14.46
39959;BMP280;25639;53.634;9.880;2022-11-09T13:04:04;155899.91;;;14.26
39959;BMP280;25639;53.634;9.880;2022-11-09T13:06:31;155912.72;;;14.32
39959;BMP280;25639;53.634;9.880;2022-11-09T13:11:47;155940.81;;;14.43
39959;BMP280;25639;53.634;9.880;2022-11-09T13:16:51;155911.44;;;14.31
39959;BMP280;25639;53.634;9.880;2022-11-09T13:22:56;155896.06;;;14.25
39959;BMP280;25639;53.634;9.880;2022-11-09T13:29:56;155907.59;;;14.29
39959;BMP280;25639;53.634;9.880;2022-11-09T13:32:23;155898.66;;;14.26
39959;BMP280;25639;53.634;9.880;2022-11-09T13:34:50;155916.53;;;14.33
39959;BMP280;25639;53.634;9.880;2022-11-09T13:40:00;155901.19;;;14.27
39959;BMP280;25639;53.634;9.880;2022-11-09T13:42:32;155921.66;;;14.35
39959;BMP280;25639;53.634;9.880;2022-11-09T13:47:50;155882.03;;;14.19
39959;BMP280;25639;53.634;9.880;2022-11-09T13:50:19;155902.50;;;14.27
39959;BMP280;25639;53.634;9.880;2022-11-09T13:52:54;155903.75;;;14.28
39959;BMP280;25639;53.634;9.880;2022-11-09T13:55:24;155919.06;;;14.34
39959;BMP280;25639;53.634;9.880;2022-11-09T13:57:50;155913.97;;;14.32
39959;BMP280;25639;53.634;9.880;2022-11-09T14:00:20;155889.69;;;14.22
39959;BMP280;25639;53.634;9.880;2022-11-09T14:03:00;155866.72;;;14.13
39959;BMP280;25639;53.634;9.880;2022-11-09T14:07:52;155853.91;;;14.08
39959;BMP280;25639;53.634;9.880;2022-11-09T14:10:22;155846.22;;;14.05
39959;BMP280;25639;53.634;9.880;2022-11-09T14:13:05;155852.59;;;14.07
39959;BMP280;25639;53.634;9.880;2022-11-09T14:15:44;155829.59;;;13.98
39959;BMP280;25639;53.634;9.880;2022-11-09T14:18:21;155819.41;;;13.94
39959;BMP280;25639;53.634;9.880;2022-11-09T14:20:56;155774.66;;;13.76
39959;BMP280;25639;53.634;9.880;2022-11-09T14:23:26;155779.78;;;13.78
39959;BMP280;25639;53.634;9.880;2022-11-09T14:25:52;155755.50;;;13.68
39959;BMP280;25639;53.634;9.880;2022-11-09T14:28:25;155738.88;;;13.62
39959;BMP280;25639;53.634;9.880;2022-11-09T14:30:51;155724.84;;;13.56
39959;BMP280;25639;53.634;9.880;2022-11-09T14:33:23;155713.31;;;13.51
39959;BMP280;25639;53.634;9.880;2022-11-09T14:35:49;155701.84;;;13.47
39959;BMP280;25639;53.634;9.880;2022-11-09T14:40:44;155690.31;;;13.42
39959;BMP280;25639;53.634;9.880;2022-11-09T14:43:22;155680.13;;;13.38
39959;BMP280;25639;53.634;9.880;2022-11-09T14:45:50;155683.97;;;13.40
39959;BMP280;25639;53.634;9.880;2022-11-09T14:48:16;155701.84;;;13.47
39959;BMP280;25639;53.634;9.880;2022-11-09T14:50:42;155681.38;;;13.39
39959;BMP280;25639;53.634;9.880;2022-11-09T14:53:11;155683.97;;;13.40
39959;BMP280;25639;53.634;9.880;2022-11-09T14:55:37;155655.78;;;13.28
39959;BMP280;25639;53.634;9.880;2022-11-09T14:58:08;155641.72;;;13.23
39959;BMP280;25639;53.634;9.880;2022-11-09T15:00:35;155637.88;;;13.21
39959;BMP280;25639;53.634;9.880;2022-11-09T15:03:19;155637.88;;;13.21
39959;BMP280;25639;53.634;9.880;2022-11-09T15:05:45;155639.19;;;13.22
39959;BMP280;25639;53.634;9.880;2022-11-09T15:08:20;155636.63;;;13.21
39959;BMP280;25639;53.634;9.880;2022-11-09T15:10:49;155622.59;;;13.15
39959;BMP280;25639;53.634;9.880;2022-11-09T15:13:16;155586.81;;;13.01
39959;BMP280;25639;53.634;9.880;2022-11-09T15:15:42;155572.78;;;12.95
39959;BMP280;25639;53.634;9.880;2022-11-09T15:18:17;155567.63;;;12.93
39959;BMP280;25639;53.634;9.880;2022-11-09T15:20:43;155545.97;;;12.84
39959;BMP280;25639;53.634;9.880;2022-11-09T15:23:34;155521.66;;;12.74
39959;BMP280;25639;53.634;9.880;2022-11-09T15:26:00;155496.13;;;12.64
39959;BMP280;25639;53.634;9.880;2022-11-09T15:28:26;155485.91;;;12.60
39959;BMP280;25639;53.634;9.880;2022-11-09T15:35:50;155491.00;;;12.62
39959;BMP280;25639;53.634;9.880;2022-11-09T15:38:29;155492.31;;;12.63
39959;BMP280;25639;53.634;9.880;2022-11-09T15:40:55;155498.69;;;12.65